Time;durP1;ratioP1;P1;durP2;ratioP2;P2;SDS_P1;SDS_P2;PMS_P1;PMS_P2;Temp;Humidity;BMP_temperature;BMP_pressure;BME280_temperature;BME280_humidity;BME280_pressure;Samples;Min_cycle;Max_cycle;Signal;HPM_P1;HPM_P2
2022/06/18 00:00:25;;;;;;;37.63;19.08;;;;;;;16.72;100.00;101019.16;4849500;29;20046;-86
2022/06/18 00:02:51;;;;;;;37.08;18.25;;;;;;;16.65;100.00;101011.13;4846221;29;20041;-85
2022/06/18 00:05:18;;;;;;;38.28;18.33;;;;;;;16.64;100.00;101001.34;4850656;29;20038;-85
2022/06/18 00:07:47;;;;;;;33.45;17.48;;;;;;;16.70;100.00;101002.28;4815697;29;20083;-83
2022/06/18 00:10:19;;;;;;;33.65;17.25;;;;;;;16.67;100.00;100992.72;4821634;29;20021;-82
2022/06/18 00:15:32;;;;;;;34.72;16.90;;;;;;;16.73;100.00;100999.09;4829511;29;20159;-82
2022/06/18 00:17:58;;;;;;;45.67;18.27;;;;;;;16.73;100.00;101001.81;4829879;29;20037;-84
2022/06/18 00:20:27;;;;;;;32.97;16.35;;;;;;;16.75;100.00;100986.94;4829405;29;20031;-83
2022/06/18 00:22:59;;;;;;;38.83;16.77;;;;;;;16.82;100.00;100998.56;4829724;29;20066;-83
2022/06/18 00:25:37;;;;;;;32.10;16.20;;;;;;;16.81;100.00;100991.44;4842635;29;20022;-82
2022/06/18 00:28:21;;;;;;;36.63;17.48;;;;;;;16.82;100.00;100984.13;4830996;29;20044;-82
2022/06/18 00:30:48;;;;;;;34.58;15.68;;;;;;;16.83;100.00;100986.63;4849622;29;20047;-81
2022/06/18 00:33:13;;;;;;;35.92;17.38;;;;;;;16.83;100.00;100967.59;4815879;29;20488;-81
2022/06/18 00:35:39;;;;;;;34.13;17.00;;;;;;;16.76;100.00;100950.56;4823513;29;20042;-84
2022/06/18 00:38:10;;;;;;;31.92;16.05;;;;;;;16.77;100.00;100941.34;4829618;29;20462;-83
2022/06/18 00:40:41;;;;;;;35.22;15.85;;;;;;;16.82;100.00;100949.63;4845111;29;20150;-82
2022/06/18 00:43:14;;;;;;;36.42;16.75;;;;;;;16.76;100.00;100942.44;4815310;29;20095;-81
2022/06/18 00:45:40;;;;;;;31.30;16.13;;;;;;;16.88;100.00;100959.53;4811488;29;20186;-81
2022/06/18 00:48:24;;;;;;;31.67;16.23;;;;;;;16.90;100.00;100962.84;4828272;29;20050;-81
2022/06/18 00:50:54;;;;;;;36.30;16.90;;;;;;;16.88;100.00;100958.72;4845337;29;20049;-83
2022/06/18 00:53:29;;;;;;;33.88;17.33;;;;;;;16.95;100.00;100962.13;4839628;29;20049;-81
2022/06/18 00:56:03;;;;;;;34.05;17.77;;;;;;;16.95;100.00;100972.19;4829805;29;20097;-82
2022/06/18 00:58:35;;;;;;;;;;;;;;;16.95;100.00;100966.75;4827905;29;20028;-81
2022/06/18 01:01:02;;;;;;;31.88;17.48;;;;;;;16.85;100.00;100942.88;4845998;29;19995;-82
2022/06/18 01:03:28;;;;;;;37.63;18.48;;;;;;;16.95;100.00;100953.97;4843678;29;20399;-82
2022/06/18 01:05:55;;;;;;;34.78;17.20;;;;;;;16.96;100.00;100946.69;4835035;29;20033;-83
2022/06/18 01:08:23;;;;;;;33.20;17.25;;;;;;;16.96;100.00;100943.97;4829181;29;20114;-81
2022/06/18 01:10:52;;;;;;;36.95;18.05;;;;;;;16.97;100.00;100951.03;4823171;29;20061;-81
2022/06/18 01:13:21;;;;;;;35.83;16.80;;;;;;;16.97;100.00;100942.88;4827412;29;20034;-82
2022/06/18 01:15:48;;;;;;;30.83;16.02;;;;;;;16.98;100.00;100944.53;4844587;29;20038;-82
2022/06/18 01:18:14;;;;;;;30.05;16.55;;;;;;;16.95;100.00;100936.84;4839340;29;20473;-81
2022/06/18 01:20:47;;;;;;;30.90;16.50;;;;;;;16.85;100.00;100915.69;4811210;29;20474;-81
2022/06/18 01:23:33;;;;;;;30.27;16.98;;;;;;;16.89;100.00;100931.31;4810177;29;20113;-81
2022/06/18 01:25:59;;;;;;;29.70;16.30;;;;;;;16.94;100.00;100932.47;4825161;29;20026;-80
2022/06/18 01:28:24;;;;;;;32.67;16.77;;;;;;;16.84;100.00;100920.31;4829101;29;20050;-80
2022/06/18 01:30:50;;;;;;;28.38;16.10;;;;;;;16.94;100.00;100933.31;4810698;29;20034;-81
2022/06/18 01:33:16;;;;;;;29.83;16.83;;;;;;;16.92;100.00;100921.88;4826726;29;20031;-81
2022/06/18 01:35:46;;;;;;;30.65;17.52;;;;;;;16.91;100.00;100923.72;4810373;29;20113;-80
2022/06/18 01:38:13;;;;;;;25.42;15.90;;;;;;;16.87;100.00;100917.13;4812814;29;20368;-80
2022/06/18 01:41:49;;;;;;;29.25;16.73;;;;;;;16.89;100.00;100923.16;4796012;29;20026;-83
2022/06/18 01:43:47;;;;;;;28.30;16.33;;;;;;;16.74;100.00;100903.75;4845843;29;20030;-82
2022/06/18 01:46:12;;;;;;;25.67;16.13;;;;;;;16.81;100.00;100915.34;4841384;29;20030;-82
2022/06/18 01:48:40;;;;;;;28.23;16.83;;;;;;;16.64;100.00;100877.19;4811381;29;20054;-82
2022/06/18 01:51:14;;;;;;;30.15;16.80;;;;;;;16.68;100.00;100897.38;4828785;29;20038;-82
2022/06/18 01:54:00;;;;;;;25.83;16.95;;;;;;;16.74;100.00;100903.75;4830987;29;20041;-83
2022/06/18 01:56:32;;;;;;;30.52;18.35;;;;;;;16.71;100.00;100898.78;4813961;29;20030;-82
2022/06/18 01:59:36;;;;;;;31.02;19.25;;;;;;;16.66;100.00;100896.81;4830254;29;20031;-82
2022/06/18 02:02:03;;;;;;;33.10;19.52;;;;;;;16.57;100.00;100886.53;4813744;29;20030;-82
2022/06/18 02:04:30;;;;;;;36.38;20.45;;;;;;;16.52;100.00;100881.78;4829370;29;20044;-80
2022/06/18 02:06:55;;;;;;;30.90;20.17;;;;;;;16.51;100.00;100882.03;4813956;29;20553;-81
2022/06/18 02:09:44;;;;;;;33.25;20.40;;;;;;;16.55;100.00;100899.50;4813020;29;20027;-81
2022/06/18 02:12:13;;;;;;;33.13;20.35;;;;;;;16.41;100.00;100886.16;4832867;29;20067;-82
2022/06/18 02:14:42;;;;;;;32.80;20.20;;;;;;;16.50;100.00;100897.50;4847610;29;20061;-82
2022/06/18 02:17:10;;;;;;;40.33;21.58;;;;;;;16.34;100.00;100871.88;4828560;29;20049;-80
2022/06/18 02:19:38;;;;;;;34.05;21.52;;;;;;;16.43;100.00;100886.75;4829595;29;20026;-83
2022/06/18 02:22:06;;;;;;;33.58;21.92;;;;;;;16.31;100.00;100876.94;4812150;29;20030;-80
2022/06/18 02:24:32;;;;;;;33.88;20.52;;;;;;;16.33;100.00;100874.84;4830092;29;20086;-82
2022/06/18 02:26:57;;;;;;;31.38;20.48;;;;;;;16.31;100.00;100885.91;4812947;29;20071;-82
2022/06/18 02:29:27;;;;;;;36.28;21.08;;;;;;;16.27;100.00;100884.75;4817556;29;20360;-82
2022/06/18 02:31:53;;;;;;;34.22;21.42;;;;;;;16.33;100.00;100893.84;4831159;29;20034;-82
2022/06/18 02:34:24;;;;;;;38.20;20.83;;;;;;;16.26;100.00;100882.25;4844098;29;20050;-82
2022/06/18 02:36:49;;;;;;;33.78;20.52;;;;;;;16.27;100.00;100892.88;4834162;29;20030;-82
2022/06/18 02:39:26;;;;;;;34.05;20.58;;;;;;;16.17;100.00;100877.16;4827996;29;20037;-81
2022/06/18 02:42:03;;;;;;;31.35;19.92;;;;;;;16.23;100.00;100891.72;4837051;29;20034;-83
2022/06/18 02:44:29;;;;;;;36.83;20.60;;;;;;;16.10;100.00;100859.34;4830446;29;20568;-81
2022/06/18 02:46:56;;;;;;;38.30;20.45;;;;;;;16.25;100.00;100881.41;4824662;29;20125;-82
2022/06/18 02:49:22;;;;;;;36.22;19.92;;;;;;;16.28;100.00;100902.69;4798746;29;20042;-81
2022/06/18 02:51:47;;;;;;;35.55;20.23;;;;;;;16.25;100.00;100897.72;4827771;29;20050;-83
2022/06/18 02:54:17;;;;;;;37.13;20.13;;;;;;;16.21;100.00;100891.09;4811443;29;20154;-82
2022/06/18 02:56:43;;;;;;;34.88;19.85;;;;;;;16.23;100.00;100901.75;4814711;29;20575;-81
2022/06/18 02:59:09;;;;;;;35.97;19.77;;;;;;;16.21;100.00;100893.81;4814935;29;20136;-81
2022/06/18 03:01:35;;;;;;;39.72;20.27;;;;;;;16.23;100.00;100902.56;4821590;29;20030;-81
2022/06/18 03:04:01;;;;;;;39.55;20.25;;;;;;;16.24;100.00;100892.53;4827881;29;20343;-81
2022/06/18 03:06:29;;;;;;;34.33;18.65;;;;;;;16.16;100.00;100880.97;4828682;29;20037;-81
2022/06/18 03:08:57;;;;;;;37.25;20.27;;;;;;;16.25;100.00;100878.72;4828365;29;20034;-82
2022/06/18 03:14:10;;;;;;;38.55;18.95;;;;;;;16.16;100.00;100889.09;4818170;29;20045;-80
2022/06/18 03:16:36;;;;;;;44.35;20.10;;;;;;;16.19;100.00;100890.50;4829155;29;20030;-81
2022/06/18 03:19:04;;;;;;;38.80;18.23;;;;;;;16.13;100.00;100881.44;4843342;29;20086;-81
2022/06/18 03:21:40;;;;;;;38.85;17.90;;;;;;;16.23;100.00;100891.72;4833469;29;20372;-82
2022/06/18 03:24:07;;;;;;;27.85;17.10;;;;;;;16.21;100.00;100891.94;4830310;29;20034;-80
2022/06/18 03:26:35;;;;;;;33.45;16.95;;;;;;;16.23;100.00;100880.84;4818580;29;20030;-80
2022/06/18 03:29:01;;;;;;;38.40;17.35;;;;;;;16.20;100.00;100881.31;4829489;29;20040;-81
2022/06/18 03:31:27;;;;;;;38.05;17.02;;;;;;;16.23;100.00;100878.13;4821886;29;20219;-81
2022/06/18 03:33:53;;;;;;;32.10;14.45;;;;;;;16.19;100.00;100874.22;4827359;29;20050;-81
2022/06/18 03:36:19;;;;;;;30.75;14.40;;;;;;;16.25;100.00;100889.56;4812159;29;20050;-81
2022/06/18 03:38:45;;;;;;;30.55;13.80;;;;;;;16.27;100.00;100903.75;4816858;29;20362;-80
2022/06/18 03:41:12;;;;;;;31.33;14.20;;;;;;;16.09;100.00;100876.69;4832243;29;20026;-80
2022/06/18 03:43:38;;;;;;;31.80;13.45;;;;;;;16.28;100.00;100896.44;4845261;29;20057;-80
2022/06/18 03:46:08;;;;;;;35.78;13.35;;;;;;;16.23;100.00;100880.03;4827196;29;20077;-81
2022/06/18 03:48:49;;;;;;;30.20;12.68;;;;;;;16.23;100.00;100883.56;4845433;29;20030;-81
2022/06/18 03:51:14;;;;;;;29.50;11.45;;;;;;;16.23;100.00;100882.75;4840979;29;20034;-81
2022/06/18 03:53:40;;;;;;;29.35;11.40;;;;;;;16.21;100.00;100882.97;4828244;29;20050;-81
2022/06/18 03:56:08;;;;;;;28.27;11.60;;;;;;;16.20;100.00;100879.41;4810884;29;20022;-81
2022/06/18 03:58:34;;;;;;;31.02;12.15;;;;;;;16.21;100.00;100882.97;4832569;29;20026;-83
2022/06/18 04:00:59;;;;;;;28.02;11.35;;;;;;;16.03;100.00;100866.78;4829865;29;20046;-81
2022/06/18 04:03:24;;;;;;;34.75;10.88;;;;;;;16.03;100.00;100869.50;4795384;29;20063;-81
2022/06/18 04:05:50;;;;;;;31.73;10.50;;;;;;;16.10;100.00;100870.22;4812314;29;20126;-81
2022/06/18 04:08:20;;;;;;;31.45;10.95;;;;;;;16.12;100.00;100877.03;4829050;29;20473;-80
2022/06/18 04:10:46;;;;;;;35.03;10.20;;;;;;;16.10;100.00;100867.50;4811385;29;20185;-81
2022/06/18 04:13:12;;;;;;;26.30;10.85;;;;;;;16.04;100.00;100871.97;4828823;29;20039;-83
2022/06/18 04:15:37;;;;;;;31.38;10.20;;;;;;;16.00;100.00;100867.25;4827987;29;20042;-81
2022/06/18 04:18:03;;;;;;;30.42;9.63;;;;;;;16.03;100.00;100869.50;4799866;29;20426;-81
2022/06/18 04:20:33;;;;;;;27.13;9.65;;;;;;;15.92;100.00;100852.94;4813484;29;20564;-82
2022/06/18 04:22:59;;;;;;;31.70;10.20;;;;;;;16.03;100.00;100869.50;4829479;29;20045;-82
2022/06/18 04:25:24;;;;;;;26.95;9.25;;;;;;;15.88;100.00;100856.34;4836381;29;20026;-82
2022/06/18 04:27:50;;;;;;;25.40;9.45;;;;;;;16.01;100.00;100871.59;4832355;29;20030;-81
2022/06/18 04:30:17;;;;;;;26.30;8.77;;;;;;;15.97;100.00;100860.41;4832815;29;20083;-83
2022/06/18 04:32:44;;;;;;;22.30;8.73;;;;;;;16.01;100.00;100864.28;4816539;29;20007;-83
2022/06/18 04:35:12;;;;;;;25.77;9.65;;;;;;;15.95;100.00;100863.31;4847462;29;20088;-83
2022/06/18 04:37:38;;;;;;;40.67;10.50;;;;;;;15.98;100.00;100872.88;4848477;29;20441;-82
2022/06/18 04:40:05;;;;;;;37.13;10.55;;;;;;;16.02;100.00;100865.09;4829049;29;20042;-83
2022/06/18 04:42:30;;;;;;;26.27;10.00;;;;;;;15.96;100.00;100856.03;4829398;29;20071;-82
2022/06/18 04:44:56;;;;;;;25.48;9.05;;;;;;;15.97;100.00;100863.94;4817504;29;20460;-82
2022/06/18 04:47:22;;;;;;;30.88;8.25;;;;;;;15.95;100.00;100871.47;4810629;29;20042;-82
2022/06/18 04:49:47;;;;;;;27.23;8.13;;;;;;;15.96;100.00;100864.19;4813780;29;20109;-83
2022/06/18 04:52:12;;;;;;;34.50;8.75;;;;;;;15.90;100.00;100843.41;4844509;29;20030;-80
2022/06/18 04:54:38;;;;;;;28.17;7.15;;;;;;;15.90;100.00;100838.78;4828574;29;20038;-81
2022/06/18 04:57:04;;;;;;;23.50;7.03;;;;;;;16.00;100.00;100853.69;4843756;29;20113;-81
2022/06/18 04:59:29;;;;;;;20.02;6.32;;;;;;;15.96;100.00;100854.13;4841322;29;20062;-80
2022/06/18 05:02:01;;;;;;;22.40;6.47;;;;;;;15.95;100.00;100844.31;4827947;29;20030;-80
2022/06/18 05:04:26;;;;;;;22.38;5.70;;;;;;;15.98;100.00;100852.00;4825996;29;20090;-81
2022/06/18 05:06:52;;;;;;;21.13;6.32;;;;;;;15.92;100.00;100846.69;4806070;29;20121;-80
2022/06/18 05:09:18;;;;;;;25.70;7.00;;;;;;;16.05;100.00;100870.06;4831635;29;20042;-81
2022/06/18 05:11:43;;;;;;;26.83;7.10;;;;;;;16.01;100.00;100860.75;4840306;29;20034;-84
2022/06/18 05:14:09;;;;;;;19.60;5.15;;;;;;;16.03;100.00;100854.03;4824783;29;20068;-82
2022/06/18 05:16:34;;;;;;;21.38;5.65;;;;;;;16.03;100.00;100862.19;4818710;29;20048;-81
2022/06/18 05:18:59;;;;;;;17.20;5.47;;;;;;;16.10;100.00;100862.06;4818670;29;20113;-82
2022/06/18 05:21:25;;;;;;;15.70;5.05;;;;;;;16.12;100.00;100857.22;4813972;29;20125;-81
2022/06/18 05:23:50;;;;;;;19.00;5.25;;;;;;;16.17;100.00;100860.88;4797762;29;20045;-83
2022/06/18 05:26:16;;;;;;;15.50;5.22;;;;;;;16.20;100.00;100863.13;4810492;29;20030;-81
2022/06/18 05:28:41;;;;;;;19.38;5.50;;;;;;;16.20;100.00;100856.88;4810928;29;20030;-82
2022/06/18 05:31:07;;;;;;;17.75;5.43;;;;;;;16.25;100.00;100857.00;4826757;29;20041;-83
2022/06/18 05:33:32;;;;;;;16.95;5.50;;;;;;;16.20;100.00;100843.31;4826605;29;20038;-81
2022/06/18 05:35:57;;;;;;;17.88;4.82;;;;;;;16.17;100.00;100832.91;4829705;29;20117;-82
2022/06/18 05:38:24;;;;;;;19.42;5.57;;;;;;;16.61;100.00;100852.38;4814370;29;20034;-81
2022/06/18 05:40:50;;;;;;;19.27;5.68;;;;;;;16.57;100.00;100843.06;4807471;29;20038;-83
2022/06/18 05:43:16;;;;;;;19.27;6.20;;;;;;;16.72;100.00;100862.44;4830791;29;20043;-83
2022/06/18 05:45:42;;;;;;;26.38;6.57;;;;;;;16.70;100.00;100872.69;4811829;29;20373;-81
2022/06/18 05:48:09;;;;;;;23.65;5.90;;;;;;;16.48;100.00;100837.16;4809368;29;20030;-81
2022/06/18 05:50:35;;;;;;;20.98;6.10;;;;;;;16.75;100.00;100875.53;4809189;29;20075;-82
2022/06/18 05:53:00;;;;;;;13.77;4.35;;;;;;;16.66;100.00;100853.31;4839694;29;20034;-81
2022/06/18 05:55:25;;;;;;;12.82;4.30;;;;;;;16.82;100.00;100862.69;4842747;29;20632;-80
2022/06/18 05:57:54;;;;;;;14.13;4.65;;;;;;;17.27;100.00;100867.38;4805126;29;20040;-80
2022/06/18 06:00:24;;;;;;;16.58;4.05;;;;;;;17.30;100.00;100842.44;4826353;29;20026;-79
2022/06/18 06:02:50;;;;;;;16.10;4.97;;;;;;;17.64;100.00;100872.44;4838279;29;20034;-81
2022/06/18 06:05:16;;;;;;;16.80;4.75;;;;;;;17.55;100.00;100882.91;4812118;29;20451;-80
2022/06/18 06:07:44;;;;;;;14.13;4.47;;;;;;;17.42;100.00;100877.75;4804425;29;20090;-81
2022/06/18 06:13:19;;;;;;;18.80;4.90;;;;;;;17.24;100.00;100876.03;4835686;29;20063;-83
2022/06/18 06:15:45;;;;;;;18.48;4.75;;;;;;;17.25;100.00;100877.69;4833372;29;20038;-84
2022/06/18 06:18:13;;;;;;;14.00;4.20;;;;;;;17.08;100.00;100880.31;4822520;29;20026;-84
2022/06/18 06:20:41;;;;;;;13.60;4.57;;;;;;;16.87;100.00;100849.19;4839441;29;20045;-82
2022/06/18 06:23:08;;;;;;;20.23;5.10;;;;;;;17.17;100.00;100875.34;4837931;29;20026;-83
2022/06/18 06:25:35;;;;;;;16.35;4.70;;;;;;;17.25;100.00;100871.41;4820464;29;20048;-83
2022/06/18 06:28:00;;;;;;;16.00;4.40;;;;;;;17.32;100.00;100862.06;4834831;29;20490;-82
2022/06/18 06:30:27;;;;;;;19.02;4.72;;;;;;;17.44;100.00;100863.91;4833888;29;20039;-84
2022/06/18 06:32:55;;;;;;;15.43;4.50;;;;;;;17.53;100.00;100873.31;4832042;29;20045;-83
2022/06/18 06:35:20;;;;;;;17.38;5.10;;;;;;;17.50;100.00;100866.47;4816493;29;20051;-80
2022/06/18 06:37:46;;;;;;;16.75;4.18;;;;;;;17.50;100.00;100860.19;4841802;29;20041;-84
2022/06/18 06:40:13;;;;;;;17.50;5.03;;;;;;;17.50;100.00;100852.03;4809359;29;20059;-81
2022/06/18 06:42:50;;;;;;;17.83;4.47;;;;;;;17.52;100.00;100856.19;4830978;29;20084;-83
2022/06/18 06:45:23;;;;;;;16.08;4.20;;;;;;;17.53;100.00;100873.31;4851751;29;20357;-81
2022/06/18 06:47:48;;;;;;;13.45;4.68;;;;;;;17.63;100.00;100868.06;4824775;29;20409;-81
2022/06/18 06:50:16;;;;;;;18.40;4.95;;;;;;;17.77;100.00;100869.44;4842523;29;20064;-81
2022/06/18 06:52:43;;;;;;;25.10;5.40;;;;;;;18.12;100.00;100878.47;4818967;29;20026;-80
2022/06/18 06:58:00;;;;;;;21.27;4.93;;;;;;;18.33;100.00;100864.09;4827087;29;20121;-78
2022/06/18 07:00:26;;;;;;;15.95;4.22;;;;;;;18.44;100.00;100857.75;4795522;29;20125;-80
2022/06/18 07:02:52;;;;;;;15.27;3.97;;;;;;;18.20;100.00;100834.47;4826806;29;20118;-81
2022/06/18 07:05:17;;;;;;;16.38;4.35;;;;;;;18.29;100.00;100860.22;4845720;29;20038;-80
2022/06/18 07:07:43;;;;;;;14.32;4.80;;;;;;;18.27;100.00;100819.59;4816572;29;20030;-81
2022/06/18 07:10:10;;;;;;;18.60;4.72;;;;;;;18.43;100.00;100847.91;4811579;29;20034;-80
2022/06/18 07:12:36;;;;;;;14.93;4.65;;;;;;;18.24;100.00;100851.97;4811987;29;20034;-81
2022/06/18 07:15:03;;;;;;;16.88;4.80;;;;;;;18.23;100.00;100861.22;4812633;29;20053;-81
2022/06/18 07:17:29;;;;;;;20.92;4.70;;;;;;;18.31;100.00;100863.53;4800987;29;20133;-81
2022/06/18 07:19:54;;;;;;;19.23;4.22;;;;;;;18.35;100.00;100852.97;4827065;29;20042;-83
2022/06/18 07:22:20;;;;;;;19.48;4.85;;;;;;;18.27;100.00;100860.44;4836691;29;20037;-80
2022/06/18 07:24:45;;;;;;;13.13;4.30;;;;;;;18.33;100.00;100855.91;4846170;29;20079;-81
2022/06/18 07:27:10;;;;;;;13.75;3.92;;;;;;;18.25;100.00;100854.44;4828874;29;20071;-81
2022/06/18 07:29:36;;;;;;;17.13;4.78;;;;;;;18.43;100.00;100866.97;4831973;29;20022;-81
2022/06/18 07:32:14;;;;;;;14.07;4.72;;;;;;;18.53;100.00;100871.75;4810642;29;20046;-79
2022/06/18 07:34:40;;;;;;;17.17;4.25;;;;;;;18.52;100.00;100859.19;4829730;29;20054;-81
2022/06/18 07:37:06;;;;;;;16.98;4.30;;;;;;;18.43;100.00;100866.16;4811582;29;20099;-81
2022/06/18 07:39:32;;;;;;;21.35;4.80;;;;;;;18.50;100.00;100858.63;4843120;29;20053;-80
2022/06/18 07:41:57;;;;;;;21.40;4.28;;;;;;;18.53;100.00;100849.94;4828750;29;20140;-80
2022/06/18 07:44:24;;;;;;;16.60;4.35;;;;;;;18.51;100.00;100844.75;4797349;29;20045;-80
2022/06/18 07:46:57;;;;;;;14.70;4.05;;;;;;;18.49;100.00;100848.81;4810838;29;20360;-80
2022/06/18 07:49:23;;;;;;;19.80;5.30;;;;;;;18.61;100.00;100854.13;4820893;29;20121;-81
2022/06/18 07:51:48;;;;;;;15.98;4.03;;;;;;;18.51;100.00;100835.75;4811909;29;20068;-80
2022/06/18 07:54:15;;;;;;;22.50;4.50;;;;;;;18.69;100.00;100857.25;4780299;29;20037;-81
2022/06/18 07:56:40;;;;;;;21.80;4.85;;;;;;;18.72;100.00;100862.25;4827713;29;20034;-81
2022/06/18 07:59:06;;;;;;;17.83;4.65;;;;;;;18.58;100.00;100854.66;4826562;29;20345;-80
2022/06/18 08:01:31;;;;;;;16.50;4.93;;;;;;;18.57;100.00;100861.97;4803497;29;20123;-80
2022/06/18 08:03:57;;;;;;;21.05;4.82;;;;;;;18.39;100.00;100848.66;4827280;29;20038;-81
2022/06/18 08:06:22;;;;;;;19.58;5.15;;;;;;;18.46;100.00;100861.00;4826723;29;20052;-81
2022/06/18 08:08:47;;;;;;;15.73;4.47;;;;;;;18.40;100.00;100872.91;4826510;29;20078;-80
2022/06/18 08:11:18;;;;;;;18.52;4.38;;;;;;;18.49;100.00;100854.25;4797966;29;20038;-80
2022/06/18 08:13:44;;;;;;;9.10;2.90;;;;;;;18.41;100.00;100865.56;4826700;29;20037;-81
2022/06/18 08:16:12;;;;;;;15.73;3.97;;;;;;;18.37;100.00;100875.31;4796096;29;20034;-79
2022/06/18 08:18:38;;;;;;;21.88;4.97;;;;;;;18.43;100.00;100866.16;4810405;29;20156;-80
2022/06/18 08:21:11;;;;;;;14.55;4.80;;;;;;;18.31;100.00;100868.97;4830478;29;20045;-80
2022/06/18 08:23:37;;;;;;;18.95;5.50;;;;;;;18.26;100.00;100882.50;4819847;29;20121;-81
2022/06/18 08:26:05;;;;;;;16.60;5.40;;;;;;;18.27;100.00;100878.69;4817100;29;20035;-81
2022/06/18 08:28:32;;;;;;;13.82;4.53;;;;;;;18.28;100.00;100862.13;4813758;29;20022;-81
2022/06/18 08:30:59;;;;;;;17.23;4.72;;;;;;;18.60;100.00;100909.72;4791006;29;20038;-80
2022/06/18 08:33:25;;;;;;;17.30;4.38;;;;;;;18.63;100.00;100893.69;4794318;29;20405;-81
2022/06/18 08:35:51;;;;;;;17.45;4.88;;;;;;;18.70;100.00;100916.13;4835235;29;20029;-81
2022/06/18 08:38:17;;;;;;;22.67;5.15;;;;;;;18.72;100.00;100908.56;4833818;29;20133;-81
2022/06/18 08:40:45;;;;;;;14.38;4.20;;;;;;;18.71;100.00;100908.81;4820198;29;20057;-80
2022/06/18 08:43:42;;;;;;;15.25;4.72;;;;;;;18.80;100.00;100901.03;4821776;29;20030;-80
2022/06/18 08:46:40;;;;;;;14.20;4.95;;;;;;;18.74;100.00;100908.31;4849716;29;20082;-80
2022/06/18 08:49:05;;;;;;;16.60;3.95;;;;;;;18.87;100.00;100918.03;4851643;29;20026;-80
2022/06/18 08:51:40;;;;;;;14.18;4.40;;;;;;;19.03;100.00;100914.44;4823522;29;20045;-81
2022/06/18 08:54:11;;;;;;;16.45;4.10;;;;;;;18.94;100.00;100916.81;4836725;29;20046;-81
2022/06/18 08:56:57;;;;;;;13.02;4.10;;;;;;;19.05;100.00;100906.03;4817557;29;20033;-82
2022/06/18 08:59:48;;;;;;;12.48;3.83;;;;;;;18.96;100.00;100922.00;4817081;29;20026;-81
2022/06/18 09:02:22;;;;;;;9.85;3.30;;;;;;;18.75;100.00;100902.63;4834693;29;20055;-80
2022/06/18 09:05:16;;;;;;;14.20;3.20;;;;;;;18.80;100.00;100912.75;4833692;29;20518;-81
2022/06/18 09:08:00;;;;;;;7.43;2.58;;;;;;;18.70;100.00;100921.59;4820421;29;20121;-81
2022/06/18 09:10:26;;;;;;;9.95;3.33;;;;;;;18.77;100.00;100922.28;4819322;29;20086;-81
2022/06/18 09:13:00;;;;;;;12.90;3.47;;;;;;;18.87;100.00;100912.59;4829093;29;20034;-80
2022/06/18 09:15:36;;;;;;;;;;;;;;;18.94;100.00;100919.53;4816190;29;20099;-81
2022/06/18 09:18:05;;;;;;;14.98;3.95;;;;;;;18.85;100.00;100906.56;4817608;29;19916;-81
2022/06/18 09:20:48;;;;;;;19.45;4.20;;;;;;;18.93;100.00;100896.03;4828515;29;20098;-80
2022/06/18 09:23:27;;;;;;;12.30;3.22;;;;;;;19.05;100.00;100916.94;4815200;29;20102;-80
2022/06/18 09:25:55;;;;;;;15.77;3.45;;;;;;;19.04;100.00;100927.03;4825247;29;20038;-80
2022/06/18 09:28:33;;;;;;;12.82;3.80;;;;;;;19.12;100.00;100915.66;4811350;29;20361;-80
2022/06/18 09:31:07;;;;;;;14.02;3.72;;;;;;;19.15;100.00;100901.50;4816652;29;20042;-80
2022/06/18 09:33:40;;;;;;;9.27;3.15;;;;;;;19.19;100.00;100913.56;4830026;29;20463;-82
2022/06/18 09:36:05;;;;;;;11.88;2.92;;;;;;;19.09;100.00;100915.34;4829145;29;20030;-81
2022/06/18 09:38:36;;;;;;;13.57;3.13;;;;;;;19.07;100.00;100912.03;4815003;29;20041;-79
2022/06/18 09:41:08;;;;;;;13.18;3.15;;;;;;;19.19;100.00;100901.84;4812824;29;20030;-79
2022/06/18 09:44:07;;;;;;;12.05;3.22;;;;;;;19.18;100.00;100898.28;4815016;29;20027;-79
2022/06/18 09:46:59;;;;;;;9.73;3.00;;;;;;;19.05;94.29;100898.66;4813750;29;20038;-79
2022/06/18 09:49:25;;;;;;;8.55;2.42;;;;;;;19.10;93.23;100900.63;4812582;29;20034;-82
2022/06/18 09:52:04;;;;;;;10.45;2.38;;;;;;;19.24;92.49;100894.53;4815239;29;20069;-80
2022/06/18 09:54:40;;;;;;;15.20;2.60;;;;;;;19.31;90.28;100918.09;4830595;29;20022;-80
2022/06/18 09:57:05;;;;;;;11.25;2.72;;;;;;;19.30;86.26;100913.69;4831574;29;20133;-81
2022/06/18 09:59:39;;;;;;;13.40;2.80;;;;;;;19.20;88.10;100908.94;4802140;29;20026;-80
2022/06/18 10:02:17;;;;;;;9.77;2.38;;;;;;;19.37;87.79;100917.88;4831736;29;20035;-82
2022/06/18 10:07:31;;;;;;;9.45;2.40;;;;;;;19.37;84.66;100914.31;4831108;29;20042;-81
2022/06/18 10:10:09;;;;;;;11.63;2.17;;;;;;;19.34;83.59;100934.78;4828870;29;20192;-81
2022/06/18 10:12:39;;;;;;;11.48;3.40;;;;;;;19.29;85.48;100929.25;4850023;29;20024;-82
2022/06/18 10:15:08;;;;;;;9.40;2.30;;;;;;;19.42;85.33;100931.56;4851565;29;20113;-82
2022/06/18 10:17:42;;;;;;;9.57;2.22;;;;;;;19.45;82.58;100930.25;4853292;29;20054;-80
2022/06/18 10:20:14;;;;;;;;;;;;;;;19.25;80.79;100934.38;4833704;29;20124;-82
2022/06/18 10:22:58;;;;;;;9.57;2.55;;;;;;;19.07;82.53;100953.75;4835553;29;19913;-82
2022/06/18 10:25:32;;;;;;;14.50;2.33;;;;;;;19.08;82.96;100944.53;4850753;29;20029;-82
2022/06/18 10:28:21;;;;;;;12.90;2.72;;;;;;;19.16;85.29;100945.97;4848662;29;20037;-83
2022/06/18 10:31:00;;;;;;;13.77;2.53;;;;;;;19.05;79.78;100950.47;4849088;29;20320;-82
2022/06/18 10:33:53;;;;;;;8.90;2.20;;;;;;;18.92;78.99;100943.47;4834197;29;20030;-82
2022/06/18 10:36:56;;;;;;;11.75;2.15;;;;;;;18.78;79.13;100932.13;4828150;29;20389;-81
2022/06/18 10:39:40;;;;;;;6.00;1.38;;;;;;;18.73;76.58;100953.00;4841283;29;20058;-81
2022/06/18 10:42:40;;;;;;;9.87;1.90;;;;;;;18.60;75.40;100970.50;4824754;29;20094;-82
2022/06/18 10:45:36;;;;;;;9.38;2.53;;;;;;;18.72;78.20;100965.00;4837359;29;20026;-83
2022/06/18 10:48:08;;;;;;;13.13;2.20;;;;;;;18.44;75.21;100934.03;4831415;29;20477;-83
2022/06/18 10:50:46;;;;;;;12.98;2.17;;;;;;;18.43;79.34;100936.97;4819885;29;20038;-82
2022/06/18 10:53:16;;;;;;;14.20;2.42;;;;;;;18.49;79.55;100931.38;4827242;29;20038;-82
2022/06/18 10:55:42;;;;;;;8.90;2.00;;;;;;;18.28;78.34;100897.53;4830755;29;20031;-82
2022/06/18 10:58:13;;;;;;;7.78;2.42;;;;;;;18.52;78.26;100928.16;4822656;29;20046;-82
2022/06/18 11:00:40;;;;;;;7.05;1.70;;;;;;;18.42;77.97;100930.72;4824001;29;20068;-84
2022/06/18 11:03:20;;;;;;;9.57;2.67;;;;;;;18.30;75.80;100935.41;4821815;29;20118;-82
2022/06/18 11:05:47;;;;;;;7.55;2.15;;;;;;;18.25;77.66;100957.13;4840495;29;20026;-82
2022/06/18 11:08:21;;;;;;;8.57;2.15;;;;;;;18.28;80.00;100952.00;4835899;29;20061;-82
2022/06/18 11:10:53;;;;;;;8.20;2.10;;;;;;;18.06;81.94;100924.66;4839796;29;20354;-80
2022/06/18 11:13:35;;;;;;;11.50;2.53;;;;;;;18.13;83.40;100956.38;4837347;29;20470;-81
2022/06/18 11:16:17;;;;;;;10.90;2.80;;;;;;;18.25;85.17;100960.69;4824469;29;20029;-81
2022/06/18 11:18:45;;;;;;;17.05;2.70;;;;;;;18.29;83.79;100970.00;4812128;29;20034;-81
2022/06/18 11:21:26;;;;;;;14.65;3.00;;;;;;;18.21;83.45;100961.41;4827378;29;20477;-78
2022/06/18 11:23:56;;;;;;;13.35;2.67;;;;;;;18.21;83.94;100956.81;4841750;29;20049;-80
2022/06/18 11:26:25;;;;;;;18.52;3.13;;;;;;;18.22;85.08;100963.88;4837655;29;20026;-80
2022/06/18 11:28:54;;;;;;;16.75;2.90;;;;;;;18.17;83.34;100962.97;4816505;29;20476;-80
2022/06/18 11:31:26;;;;;;;17.02;3.40;;;;;;;18.07;83.37;100934.47;4834888;29;20038;-79
2022/06/18 11:34:00;;;;;;;13.73;2.45;;;;;;;18.10;83.84;100973.19;4836135;29;20085;-79
2022/06/18 11:36:35;;;;;;;14.60;2.88;;;;;;;18.00;83.91;100943.88;4817256;29;20403;-79